createdAt,value
2018-08-04T00:00:30.414Z,0.00
2018-08-04T00:01:30.392Z,0.00
2018-08-04T00:02:30.380Z,0.00
2018-08-04T00:03:30.370Z,0.00
2018-08-04T00:04:30.371Z,0.00
2018-08-04T00:05:30.363Z,0.00
2018-08-04T00:06:30.349Z,0.00
2018-08-04T00:07:30.324Z,0.00
2018-08-04T00:08:30.313Z,0.00
2018-08-04T00:09:30.303Z,0.00
2018-08-04T00:10:30.312Z,0.00
2018-08-04T00:11:30.282Z,0.00
2018-08-04T00:12:30.273Z,0.00
2018-08-04T00:13:30.273Z,0.00
2018-08-04T00:14:30.257Z,0.00
2018-08-04T00:15:30.239Z,0.00
2018-08-04T00:16:30.228Z,0.00
2018-08-04T00:17:30.215Z,0.00
2018-08-04T00:18:30.220Z,0.00
2018-08-04T00:19:30.198Z,0.00
2018-08-04T00:20:30.200Z,0.00
2018-08-04T00:21:30.178Z,0.00
2018-08-04T00:22:30.166Z,0.00
2018-08-04T00:23:30.166Z,0.00
2018-08-04T00:24:30.141Z,0.00
2018-08-04T00:25:30.133Z,0.00
2018-08-04T00:26:30.136Z,0.00
2018-08-04T00:27:30.109Z,0.00
2018-08-04T00:28:30.098Z,0.00
2018-08-04T00:29:30.089Z,0.00
2018-08-04T00:30:30.076Z,0.00
2018-08-04T00:31:30.084Z,0.00
2018-08-04T00:32:30.060Z,0.00
2018-08-04T00:33:30.045Z,0.00
2018-08-04T00:34:30.034Z,0.00
2018-08-04T00:35:30.026Z,0.00
2018-08-04T00:36:30.030Z,0.00
2018-08-04T00:37:30.005Z,0.00
2018-08-04T00:38:29.993Z,0.00
2018-08-04T00:39:29.993Z,0.00
2018-08-04T00:40:29.968Z,0.00
2018-08-04T00:41:29.959Z,0.00
2018-08-04T00:42:29.950Z,0.00
2018-08-04T00:43:29.957Z,0.00
2018-08-04T00:44:29.936Z,0.00
2018-08-04T00:45:29.939Z,0.00
2018-08-04T00:46:29.903Z,0.00
2018-08-04T00:47:29.894Z,0.00
2018-08-04T00:48:29.883Z,0.00
2018-08-04T00:49:29.894Z,0.00
2018-08-04T00:50:29.862Z,0.00
2018-08-04T00:51:29.860Z,0.00
2018-08-04T00:52:29.839Z,0.00
2018-08-04T00:53:29.835Z,0.00
2018-08-04T00:54:29.819Z,0.00
2018-08-04T00:55:29.835Z,0.00
2018-08-04T00:56:29.796Z,0.00
2018-08-04T00:57:29.786Z,0.00
2018-08-04T00:58:29.775Z,0.00
2018-08-04T00:59:29.765Z,0.00
2018-08-04T01:00:29.756Z,0.00
2018-08-04T01:01:29.760Z,0.00
2018-08-04T01:02:29.737Z,0.00
2018-08-04T01:03:29.722Z,0.00
2018-08-04T01:04:29.713Z,0.00
2018-08-04T01:05:29.727Z,0.00
2018-08-04T01:06:29.692Z,0.00
2018-08-04T01:07:29.679Z,0.00
2018-08-04T01:08:29.668Z,0.00
2018-08-04T01:09:29.658Z,0.00
2018-08-04T01:10:29.647Z,0.00
2018-08-04T01:11:29.658Z,0.00
2018-08-04T01:12:29.628Z,0.00
2018-08-04T01:13:29.616Z,0.00
2018-08-04T01:14:29.606Z,0.00
2018-08-04T01:15:29.593Z,0.00
2018-08-04T01:16:29.583Z,0.00
2018-08-04T01:17:29.589Z,0.00
2018-08-04T01:18:29.564Z,0.00
2018-08-04T01:19:29.552Z,0.00
2018-08-04T01:20:29.540Z,0.00
2018-08-04T01:21:29.542Z,0.00
2018-08-04T01:22:29.520Z,0.00
2018-08-04T01:23:29.507Z,0.00
2018-08-04T01:24:29.512Z,0.00
2018-08-04T01:25:29.486Z,0.00
2018-08-04T01:26:29.479Z,0.00
2018-08-04T01:27:29.486Z,0.00
2018-08-04T01:28:29.456Z,0.00
2018-08-04T01:29:29.442Z,0.00
2018-08-04T01:30:29.436Z,0.00
2018-08-04T01:31:29.424Z,0.00
2018-08-04T01:32:29.412Z,0.00
2018-08-04T01:33:29.419Z,0.00
2018-08-04T01:34:29.388Z,0.00
2018-08-04T01:35:29.400Z,0.00
2018-08-04T01:36:29.369Z,0.00
2018-08-04T01:37:29.362Z,0.00
2018-08-04T01:38:29.350Z,0.00
2018-08-04T01:39:29.339Z,0.00
2018-08-04T01:40:29.329Z,0.00
2018-08-04T01:41:29.329Z,0.00
2018-08-04T01:42:29.305Z,0.00
2018-08-04T01:43:29.336Z,0.00
2018-08-04T01:44:29.283Z,0.00
2018-08-04T01:45:29.275Z,0.00
2018-08-04T01:46:29.264Z,0.00
2018-08-04T01:47:29.251Z,0.00
2018-08-04T01:48:30.259Z,0.00
2018-08-04T01:49:29.233Z,0.00
2018-08-04T01:50:29.219Z,0.00
2018-08-04T01:51:29.208Z,0.00
2018-08-04T01:52:29.198Z,0.00
2018-08-04T01:53:29.189Z,0.00
2018-08-04T01:54:29.193Z,0.00
2018-08-04T01:55:29.169Z,0.00
2018-08-04T01:56:29.158Z,0.00
2018-08-04T01:57:29.184Z,0.00
2018-08-04T01:58:29.150Z,0.00
2018-08-04T01:59:29.124Z,0.00
2018-08-04T02:00:29.141Z,0.00
2018-08-04T02:01:29.102Z,0.00
2018-08-04T02:02:29.094Z,0.00
2018-08-04T02:03:29.084Z,0.00
2018-08-04T02:04:29.107Z,0.00
2018-08-04T02:05:29.058Z,0.00
2018-08-04T02:06:29.048Z,0.00
2018-08-04T02:07:29.039Z,0.00
2018-08-04T02:08:29.029Z,0.00
2018-08-04T02:09:29.019Z,0.00
2018-08-04T02:10:29.021Z,0.00
2018-08-04T02:11:28.996Z,0.00
2018-08-04T02:12:28.986Z,0.00
2018-08-04T02:13:28.975Z,0.00
2018-08-04T02:14:29.004Z,0.00
2018-08-04T02:15:28.955Z,0.00
2018-08-04T02:16:28.942Z,0.00
2018-08-04T02:17:28.934Z,0.00
2018-08-04T02:18:28.925Z,0.00
2018-08-04T02:19:28.919Z,0.00
2018-08-04T02:20:28.916Z,0.00
2018-08-04T02:21:28.886Z,0.00
2018-08-04T02:22:28.905Z,0.00
2018-08-04T02:23:28.868Z,0.00
2018-08-04T02:24:28.857Z,0.00
2018-08-04T02:25:28.847Z,0.00
2018-08-04T02:26:28.838Z,0.00
2018-08-04T02:27:28.825Z,0.00
2018-08-04T02:28:28.827Z,0.00
2018-08-04T02:29:28.804Z,0.00
2018-08-04T02:30:28.790Z,0.00
2018-08-04T02:31:28.780Z,0.00
2018-08-04T02:32:28.773Z,0.00
2018-08-04T02:33:28.776Z,0.00
2018-08-04T02:34:28.748Z,0.00
2018-08-04T02:35:28.774Z,0.00
2018-08-04T02:36:28.726Z,0.00
2018-08-04T02:37:28.716Z,0.00
2018-08-04T02:38:28.704Z,0.00
2018-08-04T02:39:28.693Z,0.00
2018-08-04T02:40:28.685Z,0.00
2018-08-04T02:41:28.707Z,0.00
2018-08-04T02:42:28.663Z,0.00
2018-08-04T02:43:28.658Z,0.00
2018-08-04T02:44:28.654Z,0.00
2018-08-04T02:45:28.629Z,0.00
2018-08-04T02:46:28.960Z,0.00
2018-08-04T02:47:28.608Z,0.00
2018-08-04T02:48:28.597Z,0.00
2018-08-04T02:49:28.592Z,0.00
2018-08-04T02:50:28.575Z,0.00
2018-08-04T02:51:28.589Z,0.00
2018-08-04T02:52:28.552Z,0.00
2018-08-04T02:53:28.543Z,0.00
2018-08-04T02:54:28.533Z,0.00
2018-08-04T02:55:28.523Z,0.00
2018-08-04T02:56:28.515Z,0.00
2018-08-04T02:57:28.511Z,0.00
2018-08-04T02:58:28.484Z,0.00
2018-08-04T02:59:28.488Z,0.00
2018-08-04T03:00:28.464Z,0.00
2018-08-04T03:01:28.478Z,0.00
2018-08-04T03:02:28.442Z,0.00
2018-08-04T03:03:28.433Z,0.00
2018-08-04T03:04:28.420Z,0.00
2018-08-04T03:05:28.408Z,0.00
2018-08-04T03:06:28.399Z,0.00
2018-08-04T03:07:28.404Z,0.00
2018-08-04T03:08:28.424Z,0.00
2018-08-04T03:09:28.366Z,0.00
2018-08-04T03:10:28.355Z,0.00
2018-08-04T03:11:28.376Z,0.00
2018-08-04T03:12:28.342Z,4.00
2018-08-04T03:13:28.322Z,4.00
2018-08-04T03:14:28.321Z,0.00
2018-08-04T03:15:28.301Z,4.00
2018-08-04T03:16:28.290Z,4.00
2018-08-04T03:17:28.301Z,4.00
2018-08-04T03:18:28.265Z,4.00
2018-08-04T03:19:28.254Z,8.00
2018-08-04T03:20:28.246Z,4.00
2018-08-04T03:21:28.233Z,4.00
2018-08-04T03:22:28.221Z,8.00
2018-08-04T03:23:28.223Z,12.00
2018-08-04T03:24:28.203Z,12.00
2018-08-04T03:25:28.188Z,16.00
2018-08-04T03:26:28.191Z,16.00
2018-08-04T03:27:28.167Z,20.00
2018-08-04T03:28:28.168Z,20.00
2018-08-04T03:29:28.150Z,24.00
2018-08-04T03:30:28.138Z,28.00
2018-08-04T03:31:28.145Z,32.00
2018-08-04T03:32:28.114Z,36.00
2018-08-04T03:33:28.111Z,40.00
2018-08-04T03:34:28.093Z,48.00
2018-08-04T03:35:28.080Z,56.00
2018-08-04T03:36:28.078Z,60.00
2018-08-04T03:37:28.059Z,72.00
2018-08-04T03:38:28.058Z,84.00
2018-08-04T03:39:28.033Z,92.00
2018-08-04T03:40:28.022Z,104.00
2018-08-04T03:41:28.010Z,120.00
2018-08-04T03:42:27.997Z,136.00
2018-08-04T03:43:28.003Z,156.00
2018-08-04T03:44:27.975Z,172.00
2018-08-04T03:45:27.967Z,192.00
2018-08-04T03:46:27.956Z,212.00
2018-08-04T03:47:27.943Z,232.00
2018-08-04T03:48:27.946Z,256.00
2018-08-04T03:49:27.935Z,276.00
2018-08-04T03:50:27.908Z,296.00
2018-08-04T03:51:27.900Z,320.00
2018-08-04T03:52:27.889Z,340.00
2018-08-04T03:53:27.901Z,364.00
2018-08-04T03:54:27.864Z,388.00
2018-08-04T03:55:27.855Z,412.00
2018-08-04T03:56:27.841Z,440.00
2018-08-04T03:57:27.830Z,468.00
2018-08-04T03:58:27.819Z,496.00
2018-08-04T03:59:27.829Z,528.00
2018-08-04T04:00:27.800Z,564.00
2018-08-04T04:01:27.788Z,604.00
2018-08-04T04:02:27.778Z,644.00
2018-08-04T04:03:27.763Z,688.00
2018-08-04T04:04:27.756Z,728.00
2018-08-04T04:05:27.757Z,776.00
2018-08-04T04:06:27.730Z,824.00
2018-08-04T04:07:27.723Z,868.00
2018-08-04T04:08:27.709Z,912.00
2018-08-04T04:09:27.701Z,964.00
2018-08-04T04:10:27.703Z,1012.00
2018-08-04T04:11:27.676Z,1064.00
2018-08-04T04:12:27.665Z,1116.00
2018-08-04T04:13:27.659Z,1172.00
2018-08-04T04:14:27.644Z,1232.00
2018-08-04T04:15:27.651Z,1284.00
2018-08-04T04:16:27.622Z,1348.00
2018-08-04T04:17:27.612Z,1424.00
2018-08-04T04:18:27.606Z,1520.00
2018-08-04T04:19:27.591Z,1596.00
2018-08-04T04:20:27.579Z,1684.00
2018-08-04T04:21:27.585Z,1776.00
2018-08-04T04:22:27.574Z,1892.00
2018-08-04T04:23:27.549Z,2020.00
2018-08-04T04:24:27.538Z,2140.00
2018-08-04T04:25:27.528Z,2240.00
2018-08-04T04:26:27.550Z,2300.00
2018-08-04T04:27:27.506Z,2364.00
2018-08-04T04:28:27.492Z,2460.00
2018-08-04T04:29:27.482Z,2576.00
2018-08-04T04:30:27.473Z,2700.00
2018-08-04T04:31:27.460Z,2828.00
2018-08-04T04:32:27.469Z,2980.00
2018-08-04T04:33:27.439Z,3164.00
2018-08-04T04:34:27.430Z,3360.00
2018-08-04T04:35:27.421Z,3536.00
2018-08-04T04:36:27.408Z,3724.00
2018-08-04T04:37:27.395Z,3880.00
2018-08-04T04:38:27.394Z,4012.00
2018-08-04T04:39:27.376Z,4152.00
2018-08-04T04:40:27.365Z,4280.00
2018-08-04T04:41:27.358Z,4388.00
2018-08-04T04:42:27.344Z,4448.00
2018-08-04T04:43:27.345Z,4500.00
2018-08-04T04:44:27.333Z,4524.00
2018-08-04T04:45:27.310Z,4524.00
2018-08-04T04:46:27.302Z,4560.00
2018-08-04T04:47:27.292Z,4628.00
2018-08-04T04:48:27.324Z,4708.00
2018-08-04T04:49:27.269Z,4772.00
2018-08-04T04:50:27.259Z,4860.00
2018-08-04T04:51:27.248Z,4912.00
2018-08-04T04:52:27.234Z,4912.00
2018-08-04T04:53:27.227Z,4908.00
2018-08-04T04:54:27.226Z,4912.00
2018-08-04T04:55:27.239Z,4976.00
2018-08-04T04:56:27.194Z,5076.00
2018-08-04T04:57:27.181Z,5144.00
2018-08-04T04:58:27.171Z,5128.00
2018-08-04T04:59:27.179Z,5076.00
2018-08-04T05:00:27.153Z,5048.00
2018-08-04T05:01:27.137Z,5008.00
2018-08-04T05:02:27.131Z,4932.00
2018-08-04T05:03:27.118Z,4840.00
2018-08-04T05:04:27.107Z,4740.00
2018-08-04T05:05:27.108Z,4700.00
2018-08-04T05:06:27.087Z,4696.00
2018-08-04T05:07:27.087Z,4692.00
2018-08-04T05:08:27.062Z,4724.00
2018-08-04T05:09:27.055Z,4740.00
2018-08-04T05:10:27.057Z,4812.00
2018-08-04T05:11:27.034Z,4928.00
2018-08-04T05:12:27.022Z,5088.00
2018-08-04T05:13:27.040Z,5208.00
2018-08-04T05:14:27.014Z,5268.00
2018-08-04T05:15:27.029Z,5272.00
2018-08-04T05:16:26.980Z,5232.00
2018-08-04T05:17:26.969Z,5172.00
2018-08-04T05:18:26.956Z,5100.00
2018-08-04T05:19:26.949Z,5032.00
2018-08-04T05:20:26.937Z,5008.00
2018-08-04T05:21:26.953Z,5064.00
2018-08-04T05:22:26.916Z,5212.00
2018-08-04T05:23:26.902Z,5444.00
2018-08-04T05:24:26.889Z,5732.00
2018-08-04T05:25:26.896Z,6052.00
2018-08-04T05:26:26.869Z,6340.00
2018-08-04T05:27:26.872Z,6600.00
2018-08-04T05:28:26.853Z,6784.00
2018-08-04T05:29:26.840Z,6936.00
2018-08-04T05:30:26.832Z,7036.00
2018-08-04T05:31:26.818Z,7080.00
2018-08-04T05:32:26.818Z,7124.00
2018-08-04T05:33:26.799Z,7272.00
2018-08-04T05:34:26.787Z,7404.00
2018-08-04T05:35:26.793Z,7592.00
2018-08-04T05:36:26.765Z,7788.00
2018-08-04T05:37:26.758Z,7980.00
2018-08-04T05:38:26.741Z,8084.00
2018-08-04T05:39:26.731Z,8144.00
2018-08-04T05:40:26.721Z,8216.00
2018-08-04T05:41:26.724Z,8244.00
2018-08-04T05:42:26.722Z,8224.00
2018-08-04T05:43:26.763Z,8224.00
2018-08-04T05:44:26.678Z,8224.00
2018-08-04T05:45:26.668Z,8212.00
2018-08-04T05:46:26.657Z,8164.00
2018-08-04T05:47:26.647Z,8088.00
2018-08-04T05:48:26.643Z,8012.00
2018-08-04T05:49:26.626Z,7940.00
2018-08-04T05:50:26.613Z,7884.00
2018-08-04T05:51:26.603Z,7852.00
2018-08-04T05:52:26.604Z,7844.00
2018-08-04T05:53:26.578Z,7856.00
2018-08-04T05:54:26.569Z,7908.00
2018-08-04T05:55:26.572Z,8044.00
2018-08-04T05:56:26.558Z,8244.00
2018-08-04T05:57:26.538Z,8472.00
2018-08-04T05:58:26.533Z,8796.00
2018-08-04T05:59:26.517Z,9124.00
2018-08-04T06:00:26.506Z,9376.00
2018-08-04T06:01:26.508Z,9552.00
2018-08-04T06:02:26.481Z,9696.00
2018-08-04T06:03:26.473Z,9752.00
2018-08-04T06:04:26.459Z,9800.00
2018-08-04T06:05:26.455Z,9784.00
2018-08-04T06:06:26.438Z,9736.00
2018-08-04T06:07:26.446Z,9692.00
2018-08-04T06:08:26.433Z,9704.00
2018-08-04T06:09:26.406Z,9896.00
2018-08-04T06:10:26.396Z,10180.00
2018-08-04T06:11:26.384Z,10476.00
2018-08-04T06:12:26.375Z,10792.00
2018-08-04T06:13:26.364Z,11136.00
2018-08-04T06:14:26.364Z,12792.00
2018-08-04T06:15:26.341Z,12072.00
2018-08-04T06:16:26.331Z,12488.00
2018-08-04T06:17:26.343Z,13044.00
2018-08-04T06:18:26.312Z,13884.00
2018-08-04T06:19:26.299Z,14724.00
2018-08-04T06:20:26.287Z,14564.00
2018-08-04T06:21:26.278Z,15276.00
2018-08-04T06:22:26.289Z,16512.00
2018-08-04T06:23:26.268Z,15764.00
2018-08-04T06:24:26.243Z,15096.00
2018-08-04T06:25:26.249Z,14212.00
2018-08-04T06:26:26.221Z,13668.00
2018-08-04T06:27:26.221Z,12892.00
2018-08-04T06:28:26.215Z,12632.00
2018-08-04T06:29:26.192Z,12900.00
2018-08-04T06:30:26.185Z,13560.00
2018-08-04T06:31:26.170Z,13724.00
2018-08-04T06:32:26.157Z,14636.00
2018-08-04T06:33:26.160Z,14300.00
2018-08-04T06:34:26.138Z,14996.00
2018-08-04T06:35:26.139Z,15072.00
2018-08-04T06:36:26.116Z,16928.00
2018-08-04T06:37:26.106Z,17824.00
2018-08-04T06:38:26.096Z,20352.00
2018-08-04T06:39:26.088Z,24256.00
2018-08-04T06:40:26.096Z,27936.00
2018-08-04T06:41:26.064Z,27168.00
2018-08-04T06:42:26.063Z,28256.00
2018-08-04T06:43:26.046Z,25120.00
2018-08-04T06:44:26.042Z,28224.00
2018-08-04T06:45:26.025Z,26048.00
2018-08-04T06:46:26.026Z,27296.00
2018-08-04T06:47:26.006Z,24736.00
2018-08-04T06:48:25.993Z,26368.00
2018-08-04T06:49:25.982Z,26272.00
2018-08-04T06:50:25.988Z,22368.00
2018-08-04T06:51:25.971Z,22816.00
2018-08-04T06:52:25.954Z,19648.00
2018-08-04T06:53:25.943Z,20480.00
2018-08-04T06:54:25.935Z,19712.00
2018-08-04T06:55:25.920Z,17696.00
2018-08-04T06:56:25.928Z,21568.00
2018-08-04T06:57:25.901Z,24736.00
2018-08-04T06:58:25.928Z,24896.00
2018-08-04T06:59:25.875Z,27840.00
2018-08-04T07:00:25.864Z,26464.00
2018-08-04T07:01:25.853Z,30080.00
2018-08-04T07:02:25.880Z,22528.00
2018-08-04T07:03:25.831Z,22912.00
2018-08-04T07:04:25.823Z,23360.00
2018-08-04T07:05:25.823Z,25696.00
2018-08-04T07:06:25.801Z,23520.00
2018-08-04T07:07:25.787Z,24320.00
2018-08-04T07:08:25.789Z,26336.00
2018-08-04T07:09:25.767Z,23008.00
2018-08-04T07:10:25.759Z,21088.00
2018-08-04T07:11:25.743Z,21824.00
2018-08-04T07:12:25.746Z,22336.00
2018-08-04T07:13:25.777Z,22304.00
2018-08-04T07:14:25.728Z,27360.00
2018-08-04T07:15:25.708Z,29664.00
2018-08-04T07:16:25.761Z,33696.00
2018-08-04T07:17:25.790Z,33152.00
2018-08-04T07:18:25.737Z,35616.00
2018-08-04T07:19:25.739Z,38528.00
2018-08-04T07:20:25.653Z,39424.00
2018-08-04T07:21:25.642Z,38272.00
2018-08-04T07:22:25.643Z,34592.00
2018-08-04T07:23:25.629Z,36800.00
2018-08-04T07:24:25.628Z,34528.00
2018-08-04T07:25:25.601Z,32320.00
2018-08-04T07:26:25.590Z,31776.00
2018-08-04T07:27:25.576Z,34112.00
2018-08-04T07:28:25.568Z,28768.00
2018-08-04T07:29:25.557Z,25632.00
2018-08-04T07:30:25.558Z,31456.00
2018-08-04T07:31:25.534Z,27232.00
2018-08-04T07:32:25.524Z,25536.00
2018-08-04T07:33:25.528Z,31680.00
2018-08-04T07:34:25.581Z,33312.00
2018-08-04T07:35:25.492Z,27456.00
2018-08-04T07:36:25.485Z,25728.00
2018-08-04T07:37:25.474Z,23872.00
2018-08-04T07:38:25.500Z,28320.00
2018-08-04T07:39:25.452Z,25824.00
2018-08-04T07:40:25.453Z,26080.00
2018-08-04T07:41:25.432Z,33984.00
2018-08-04T07:42:25.424Z,32864.00
2018-08-04T07:43:25.412Z,26848.00
2018-08-04T07:44:25.410Z,23712.00
2018-08-04T07:45:25.394Z,35296.00
2018-08-04T07:46:25.393Z,43488.00
2018-08-04T07:47:25.372Z,46464.00
2018-08-04T07:48:25.360Z,43488.00
2018-08-04T07:49:25.352Z,45792.00
2018-08-04T07:50:25.352Z,48960.00
2018-08-04T07:51:25.327Z,45952.00
2018-08-04T07:52:25.343Z,43296.00
2018-08-04T07:53:25.308Z,45056.00
2018-08-04T07:54:25.296Z,49920.00
2018-08-04T07:55:25.289Z,55200.00
2018-08-04T07:56:25.296Z,55392.00
2018-08-04T07:57:25.267Z,57152.00
2018-08-04T07:58:25.269Z,58656.00
2018-08-04T07:59:25.254Z,60832.00
2018-08-04T08:00:25.234Z,60864.00
2018-08-04T08:01:25.225Z,57344.00
2018-08-04T08:02:25.223Z,57376.00
2018-08-04T08:03:25.207Z,57952.00
2018-08-04T08:04:25.192Z,59424.00
2018-08-04T08:05:25.185Z,59808.00
2018-08-04T08:06:25.186Z,59584.00
2018-08-04T08:07:25.175Z,60992.00
2018-08-04T08:08:25.152Z,61152.00
2018-08-04T08:09:25.143Z,51552.00
2018-08-04T08:10:25.190Z,64672.00
2018-08-04T08:11:25.129Z,67840.00
2018-08-04T08:12:25.121Z,64992.00
2018-08-04T08:13:25.115Z,66560.00
2018-08-04T08:14:25.093Z,62176.00
2018-08-04T08:15:25.080Z,54016.00
2018-08-04T08:16:25.087Z,43712.00
2018-08-04T08:17:25.063Z,55872.00
2018-08-04T08:18:25.067Z,52640.00
2018-08-04T08:19:25.074Z,48320.00
2018-08-04T08:20:25.029Z,42816.00
2018-08-04T08:21:25.022Z,42912.00
2018-08-04T08:22:25.020Z,42016.00
2018-08-04T08:23:25.001Z,46656.00
2018-08-04T08:24:25.005Z,47840.00
2018-08-04T08:25:24.978Z,43168.00
2018-08-04T08:26:25.010Z,45536.00
2018-08-04T08:27:24.961Z,44448.00
2018-08-04T08:28:24.953Z,40416.00
2018-08-04T08:29:24.937Z,44448.00
2018-08-04T08:30:24.930Z,38816.00
2018-08-04T08:31:25.007Z,49344.00
2018-08-04T08:32:24.924Z,63328.00
2018-08-04T08:33:24.899Z,67008.00
2018-08-04T08:34:24.888Z,56896.00
2018-08-04T08:35:24.877Z,60768.00
2018-08-04T08:36:24.868Z,63456.00
2018-08-04T08:37:24.876Z,55200.00
2018-08-04T08:38:24.845Z,54080.00
2018-08-04T08:39:24.835Z,57664.00
2018-08-04T08:40:24.884Z,58080.00
2018-08-04T08:41:24.817Z,73376.00
2018-08-04T08:42:24.804Z,76032.00
2018-08-04T08:43:24.815Z,75744.00
2018-08-04T08:44:24.783Z,73760.00
2018-08-04T08:45:24.773Z,74432.00
2018-08-04T08:46:24.763Z,71744.00
2018-08-04T08:47:24.756Z,70560.00
2018-08-04T08:48:24.746Z,74688.00
2018-08-04T08:49:24.775Z,74624.00
2018-08-04T08:50:24.724Z,71392.00
2018-08-04T08:51:24.716Z,70432.00
2018-08-04T08:52:24.703Z,72928.00
2018-08-04T08:53:24.972Z,74656.00
2018-08-04T08:54:24.685Z,77248.00
2018-08-04T08:55:24.701Z,77152.00
2018-08-04T08:56:24.668Z,77472.00
2018-08-04T08:57:24.654Z,77792.00
2018-08-04T08:58:24.643Z,78176.00
2018-08-04T08:59:24.633Z,78752.00
2018-08-04T09:00:24.627Z,78176.00
2018-08-04T09:01:24.634Z,80384.00
2018-08-04T09:02:24.604Z,80288.00
2018-08-04T09:03:24.613Z,82688.00
2018-08-04T09:04:24.583Z,82720.00
2018-08-04T09:05:24.572Z,81408.00
2018-08-04T09:06:24.591Z,82368.00
2018-08-04T09:07:24.555Z,83072.00
2018-08-04T09:08:24.547Z,83136.00
2018-08-04T09:09:24.536Z,82592.00
2018-08-04T09:10:24.528Z,80672.00
2018-08-04T09:11:24.516Z,81600.00
2018-08-04T09:12:24.547Z,83296.00
2018-08-04T09:13:24.496Z,81088.00
2018-08-04T09:14:24.492Z,80480.00
2018-08-04T09:15:24.474Z,82048.00
2018-08-04T09:16:24.467Z,83936.00
2018-08-04T09:17:24.459Z,84512.00
2018-08-04T09:18:24.480Z,85184.00
2018-08-04T09:19:24.435Z,83712.00
2018-08-04T09:20:24.430Z,81664.00
2018-08-04T09:21:24.416Z,81664.00
2018-08-04T09:22:24.408Z,83232.00
2018-08-04T09:23:24.398Z,85792.00
2018-08-04T09:24:24.405Z,90048.00
2018-08-04T09:25:24.376Z,91456.00
2018-08-04T09:26:24.370Z,89632.00
2018-08-04T09:27:24.359Z,85632.00
2018-08-04T09:28:24.350Z,81312.00
2018-08-04T09:29:24.340Z,83328.00
2018-08-04T09:30:24.341Z,84128.00
2018-08-04T09:31:24.322Z,81696.00
2018-08-04T09:32:24.307Z,82336.00
2018-08-04T09:33:24.315Z,85248.00
2018-08-04T09:34:24.303Z,86176.00
2018-08-04T09:35:24.279Z,87520.00
2018-08-04T09:36:24.271Z,89248.00
2018-08-04T09:37:24.263Z,91008.00
2018-08-04T09:38:24.267Z,91552.00
2018-08-04T09:39:24.242Z,89440.00
2018-08-04T09:40:24.254Z,88096.00
2018-08-04T09:41:24.224Z,89920.00
2018-08-04T09:42:24.212Z,94272.00
2018-08-04T09:43:24.244Z,94848.00
2018-08-04T09:44:24.192Z,94656.00
2018-08-04T09:45:24.184Z,99136.00
2018-08-04T09:46:24.176Z,99520.00
2018-08-04T09:47:24.164Z,98592.00
2018-08-04T09:48:24.175Z,97472.00
2018-08-04T09:49:24.156Z,96640.00
2018-08-04T09:50:24.138Z,98496.00
2018-08-04T09:51:24.127Z,97408.00
2018-08-04T09:52:24.119Z,97536.00
2018-08-04T09:53:24.107Z,97952.00
2018-08-04T09:54:24.112Z,98464.00
2018-08-04T09:55:24.088Z,97056.00
2018-08-04T09:56:24.084Z,95712.00
2018-08-04T09:57:24.070Z,97440.00
2018-08-04T09:58:24.060Z,98528.00
2018-08-04T09:59:24.090Z,97760.00
2018-08-04T10:00:24.043Z,99488.00
2018-08-04T10:01:24.032Z,100736.00
2018-08-04T10:02:24.023Z,101152.00
2018-08-04T10:03:24.017Z,105152.00
2018-08-04T10:04:24.001Z,103488.00
2018-08-04T10:05:24.004Z,101664.00
2018-08-04T10:06:23.981Z,101920.00
2018-08-04T10:07:23.973Z,99584.00
2018-08-04T10:08:23.962Z,100480.00
2018-08-04T10:09:23.953Z,102848.00
2018-08-04T10:10:23.957Z,102720.00
2018-08-04T10:11:23.956Z,100960.00
2018-08-04T10:12:23.924Z,107648.00
2018-08-04T10:13:23.918Z,107424.00
2018-08-04T10:14:23.909Z,107008.00
2018-08-04T10:15:23.911Z,106528.00
2018-08-04T10:16:23.890Z,103936.00
2018-08-04T10:17:23.876Z,104640.00
2018-08-04T10:18:23.868Z,102336.00
2018-08-04T10:19:23.859Z,99232.00
2018-08-04T10:20:23.969Z,102496.00
2018-08-04T10:21:23.837Z,106336.00
2018-08-04T10:22:23.846Z,107616.00
2018-08-04T10:23:23.831Z,107456.00
2018-08-04T10:24:23.812Z,109120.00
2018-08-04T10:25:23.802Z,109440.00
2018-08-04T10:26:23.792Z,108352.00
2018-08-04T10:27:23.802Z,107936.00
2018-08-04T10:28:23.787Z,103712.00
2018-08-04T10:29:23.765Z,103072.00
2018-08-04T10:30:23.774Z,103232.00
2018-08-04T10:31:23.743Z,99680.00
2018-08-04T10:32:23.825Z,104672.00
2018-08-04T10:33:23.728Z,109856.00
2018-08-04T10:34:23.720Z,107360.00
2018-08-04T10:35:23.711Z,105152.00
2018-08-04T10:36:23.720Z,107328.00
2018-08-04T10:37:23.710Z,109760.00
2018-08-04T10:38:23.681Z,110912.00
2018-08-04T10:39:23.692Z,111136.00
2018-08-04T10:40:23.671Z,108960.00
2018-08-04T10:41:23.652Z,108832.00
2018-08-04T10:42:23.646Z,107232.00
2018-08-04T10:43:23.657Z,108256.00
2018-08-04T10:44:23.646Z,111328.00
2018-08-04T10:45:23.616Z,108224.00
2018-08-04T10:46:23.611Z,110176.00
2018-08-04T10:47:23.599Z,107712.00
2018-08-04T10:48:23.611Z,108128.00
2018-08-04T10:49:23.636Z,109184.00
2018-08-04T10:50:23.573Z,107552.00
2018-08-04T10:51:23.579Z,108384.00
2018-08-04T10:52:23.551Z,107136.00
2018-08-04T10:53:23.546Z,108672.00
2018-08-04T10:54:23.548Z,109888.00
2018-08-04T10:55:23.525Z,109664.00
2018-08-04T10:56:23.551Z,107264.00
2018-08-04T10:57:23.526Z,104800.00
2018-08-04T10:58:23.500Z,109152.00
2018-08-04T10:59:23.492Z,109504.00
2018-08-04T11:00:23.527Z,115040.00
2018-08-04T11:01:23.475Z,109472.00
2018-08-04T11:02:23.463Z,109728.00
2018-08-04T11:03:23.454Z,105664.00
2018-08-04T11:04:23.445Z,103360.00
2018-08-04T11:05:23.438Z,100192.00
2018-08-04T11:06:23.440Z,91904.00
2018-08-04T11:07:23.421Z,95616.00
2018-08-04T11:08:23.413Z,98944.00
2018-08-04T11:09:23.404Z,95616.00
2018-08-04T11:10:23.395Z,103424.00
2018-08-04T11:11:23.423Z,100992.00
2018-08-04T11:12:23.393Z,106784.00
2018-08-04T11:13:23.366Z,111872.00
2018-08-04T11:14:23.358Z,112832.00
2018-08-04T11:15:23.355Z,114624.00
2018-08-04T11:16:23.340Z,113952.00
2018-08-04T11:17:23.368Z,114304.00
2018-08-04T11:18:23.322Z,108960.00
2018-08-04T11:19:23.312Z,111328.00
2018-08-04T11:20:23.302Z,112704.00
2018-08-04T11:21:23.297Z,108416.00
2018-08-04T11:22:23.291Z,110752.00
2018-08-04T11:23:23.289Z,113472.00
2018-08-04T11:24:23.273Z,111232.00
2018-08-04T11:25:23.260Z,114880.00
2018-08-04T11:26:23.257Z,111456.00
2018-08-04T11:27:23.240Z,112672.00
2018-08-04T11:28:23.252Z,111328.00
2018-08-04T11:29:23.224Z,111776.00
2018-08-04T11:30:23.212Z,111296.00
2018-08-04T11:31:23.215Z,109504.00
2018-08-04T11:32:23.196Z,108192.00
2018-08-04T11:33:23.228Z,108192.00
2018-08-04T11:34:23.175Z,106208.00
2018-08-04T11:35:23.167Z,109920.00
2018-08-04T11:36:23.159Z,105344.00
2018-08-04T11:37:23.145Z,104384.00
2018-08-04T11:38:23.136Z,100832.00
2018-08-04T11:39:23.164Z,99072.00
2018-08-04T11:40:23.117Z,103904.00
2018-08-04T11:41:23.109Z,104576.00
2018-08-04T11:42:23.104Z,105440.00
2018-08-04T11:43:23.087Z,105600.00
2018-08-04T11:44:23.082Z,108160.00
2018-08-04T11:45:23.090Z,107712.00
2018-08-04T11:46:23.062Z,110784.00
2018-08-04T11:47:23.055Z,107712.00
2018-08-04T11:48:23.060Z,102016.00
2018-08-04T11:49:23.045Z,100000.00
2018-08-04T11:50:23.027Z,97760.00
2018-08-04T11:51:23.017Z,97536.00
2018-08-04T11:52:23.005Z,97760.00
2018-08-04T11:53:23.011Z,98432.00
2018-08-04T11:54:22.989Z,95840.00
2018-08-04T11:55:22.995Z,97856.00
2018-08-04T11:56:22.972Z,96544.00
2018-08-04T11:57:22.968Z,99136.00
2018-08-04T11:58:23.009Z,102208.00
2018-08-04T11:59:22.944Z,102944.00
2018-08-04T12:00:22.974Z,106048.00
2018-08-04T12:01:22.921Z,105280.00
2018-08-04T12:02:22.914Z,103936.00
2018-08-04T12:03:22.904Z,100320.00
2018-08-04T12:04:22.894Z,99936.00
2018-08-04T12:05:22.943Z,99168.00
2018-08-04T12:06:22.889Z,105088.00
2018-08-04T12:07:22.864Z,104032.00
2018-08-04T12:08:22.860Z,100736.00
2018-08-04T12:09:22.860Z,98112.00
2018-08-04T12:10:22.839Z,97984.00
2018-08-04T12:11:22.842Z,97728.00